sensor_id;sensor_type;location;lat;lon;timestamp;pressure;altitude;pressure_sealevel;temperature;humidity
24858;BME280;12935;50.782;6.074;2023-08-17T00:00:38;99759.34;;;19.43;100.00
24858;BME280;12935;50.782;6.074;2023-08-17T00:03:03;99753.59;;;19.50;100.00
24858;BME280;12935;50.782;6.074;2023-08-17T00:05:29;99757.34;;;19.43;100.00
24858;BME280;12935;50.782;6.074;2023-08-17T00:07:55;99758.22;;;19.40;100.00
24858;BME280;12935;50.782;6.074;2023-08-17T00:10:20;99765.25;;;19.32;100.00
24858;BME280;12935;50.782;6.074;2023-08-17T00:12:45;99756.28;;;19.28;100.00
24858;BME280;12935;50.782;6.074;2023-08-17T00:15:10;99764.47;;;19.32;100.00
24858;BME280;12935;50.782;6.074;2023-08-17T00:17:36;99770.13;;;19.28;100.00
24858;BME280;12935;50.782;6.074;2023-08-17T00:20:01;99762.25;;;19.26;100.00
24858;BME280;12935;50.782;6.074;2023-08-17T00:22:30;99765.81;;;19.27;100.00
24858;BME280;12935;50.782;6.074;2023-08-17T00:24:55;99764.69;;;19.24;100.00
24858;BME280;12935;50.782;6.074;2023-08-17T00:27:20;99765.59;;;19.21;100.00
24858;BME280;12935;50.782;6.074;2023-08-17T00:29:45;99763.91;;;19.24;100.00
24858;BME280;12935;50.782;6.074;2023-08-17T00:32:11;99765.69;;;19.31;100.00
24858;BME280;12935;50.782;6.074;2023-08-17T00:34:36;99772.75;;;19.44;100.00
24858;BME280;12935;50.782;6.074;2023-08-17T00:37:01;99764.09;;;19.55;100.00
24858;BME280;12935;50.782;6.074;2023-08-17T00:39:27;99760.66;;;19.64;100.00
24858;BME280;12935;50.782;6.074;2023-08-17T00:41:52;99766.59;;;19.75;100.00
24858;BME280;12935;50.782;6.074;2023-08-17T00:44:17;99762.91;;;19.78;100.00
24858;BME280;12935;50.782;6.074;2023-08-17T00:46:43;99770.06;;;19.66;100.00
24858;BME280;12935;50.782;6.074;2023-08-17T00:49:09;99764.31;;;19.60;100.00
24858;BME280;12935;50.782;6.074;2023-08-17T00:51:35;99768.06;;;19.67;100.00
24858;BME280;12935;50.782;6.074;2023-08-17T00:54:01;99770.22;;;19.50;100.00
24858;BME280;12935;50.782;6.074;2023-08-17T00:56:27;99765.25;;;19.32;100.00
24858;BME280;12935;50.782;6.074;2023-08-17T00:58:53;99762.25;;;19.26;100.00
24858;BME280;12935;50.782;6.074;2023-08-17T01:01:19;99769.47;;;19.24;100.00
24858;BME280;12935;50.782;6.074;2023-08-17T01:03:45;99771.91;;;19.22;100.00
24858;BME280;12935;50.782;6.074;2023-08-17T01:06:10;99764.03;;;19.20;100.00
24858;BME280;12935;50.782;6.074;2023-08-17T01:08:37;99766.28;;;19.13;100.00
24858;BME280;12935;50.782;6.074;2023-08-17T01:11:21;99763.59;;;19.09;100.00
24858;BME280;12935;50.782;6.074;2023-08-17T01:14:18;99757.09;;;19.03;100.00
24858;BME280;12935;50.782;6.074;2023-08-17T01:17:00;99751.44;;;18.94;100.00
24858;BME280;12935;50.782;6.074;2023-08-17T01:19:28;99752.97;;;19.08;100.00
24858;BME280;12935;50.782;6.074;2023-08-17T01:21:57;99751.75;;;19.09;100.00
24858;BME280;12935;50.782;6.074;2023-08-17T01:24:25;99756.81;;;19.23;100.00
24858;BME280;12935;50.782;6.074;2023-08-17T01:26:51;99750.19;;;19.20;100.00
24858;BME280;12935;50.782;6.074;2023-08-17T01:29:17;99753.31;;;19.10;100.00
24858;BME280;12935;50.782;6.074;2023-08-17T01:31:49;99745.53;;;19.05;100.00
24858;BME280;12935;50.782;6.074;2023-08-17T01:34:19;99744.34;;;19.06;100.00
24858;BME280;12935;50.782;6.074;2023-08-17T01:36:52;99751.78;;;18.96;100.00
24858;BME280;12935;50.782;6.074;2023-08-17T01:39:19;99746.13;;;19.00;100.00
24858;BME280;12935;50.782;6.074;2023-08-17T01:41:47;99747.44;;;18.95;100.00
24858;BME280;12935;50.782;6.074;2023-08-17T01:44:13;99742.78;;;18.92;100.00
24858;BME280;12935;50.782;6.074;2023-08-17T01:46:38;99737.81;;;19.00;100.00
24858;BME280;12935;50.782;6.074;2023-08-17T01:49:04;99737.72;;;19.03;100.00
24858;BME280;12935;50.782;6.074;2023-08-17T01:51:29;99732.16;;;19.16;100.00
24858;BME280;12935;50.782;6.074;2023-08-17T01:53:54;99736.22;;;19.24;100.00
24858;BME280;12935;50.782;6.074;2023-08-17T01:56:20;99739.44;;;19.22;100.00
24858;BME280;12935;50.782;6.074;2023-08-17T01:58:45;99741.84;;;19.33;100.00
24858;BME280;12935;50.782;6.074;2023-08-17T02:01:10;99733.28;;;19.40;100.00
24858;BME280;12935;50.782;6.074;2023-08-17T02:03:36;99738.22;;;19.23;100.00
24858;BME280;12935;50.782;6.074;2023-08-17T02:06:01;99727.72;;;19.06;100.00
24858;BME280;12935;50.782;6.074;2023-08-17T02:08:27;99727.72;;;19.06;100.00
24858;BME280;12935;50.782;6.074;2023-08-17T02:10:52;99735.47;;;19.11;100.00
24858;BME280;12935;50.782;6.074;2023-08-17T02:13:18;99731.81;;;19.14;100.00
24858;BME280;12935;50.782;6.074;2023-08-17T02:15:43;99741.56;;;19.18;100.00
24858;BME280;12935;50.782;6.074;2023-08-17T02:18:09;99733.94;;;18.97;100.00
24858;BME280;12935;50.782;6.074;2023-08-17T02:20:34;99737.16;;;18.96;100.00
24858;BME280;12935;50.782;6.074;2023-08-17T02:23:00;99749.78;;;18.97;100.00
24858;BME280;12935;50.782;6.074;2023-08-17T02:25:26;99747.91;;;18.93;100.00
24858;BME280;12935;50.782;6.074;2023-08-17T02:27:52;99746.00;;;18.90;100.00
24858;BME280;12935;50.782;6.074;2023-08-17T02:30:18;99743.25;;;19.03;100.00
24858;BME280;12935;50.782;6.074;2023-08-17T02:32:44;99738.47;;;18.91;100.00
24858;BME280;12935;50.782;6.074;2023-08-17T02:35:09;99738.16;;;19.02;100.00
24858;BME280;12935;50.782;6.074;2023-08-17T02:37:35;99729.31;;;18.81;100.00
24858;BME280;12935;50.782;6.074;2023-08-17T02:40:00;99723.78;;;18.69;100.00
24858;BME280;12935;50.782;6.074;2023-08-17T02:42:43;99721.28;;;18.58;100.00
24858;BME280;12935;50.782;6.074;2023-08-17T02:45:09;99721.53;;;18.51;100.00
24858;BME280;12935;50.782;6.074;2023-08-17T02:47:34;99723.94;;;18.49;100.00
24858;BME280;12935;50.782;6.074;2023-08-17T02:50:00;99715.97;;;18.38;100.00
24858;BME280;12935;50.782;6.074;2023-08-17T02:52:25;99719.72;;;18.32;100.00
24858;BME280;12935;50.782;6.074;2023-08-17T02:54:50;99716.53;;;18.46;100.00
24858;BME280;12935;50.782;6.074;2023-08-17T02:57:16;99722.41;;;18.35;100.00
24858;BME280;12935;50.782;6.074;2023-08-17T02:59:41;99718.28;;;18.27;100.00
24858;BME280;12935;50.782;6.074;2023-08-17T03:02:06;99722.72;;;18.25;100.00
24858;BME280;12935;50.782;6.074;2023-08-17T03:04:31;99722.59;;;18.28;100.00
24858;BME280;12935;50.782;6.074;2023-08-17T03:06:58;99724.81;;;18.33;100.00
24858;BME280;12935;50.782;6.074;2023-08-17T03:09:23;99715.41;;;18.31;100.00
24858;BME280;12935;50.782;6.074;2023-08-17T03:11:48;99721.50;;;18.38;100.00
24858;BME280;12935;50.782;6.074;2023-08-17T03:14:13;99717.31;;;18.46;100.00
24858;BME280;12935;50.782;6.074;2023-08-17T03:16:39;99707.88;;;18.44;100.00
24858;BME280;12935;50.782;6.074;2023-08-17T03:19:04;99702.78;;;18.42;100.00
24858;BME280;12935;50.782;6.074;2023-08-17T03:21:30;99709.97;;;18.27;100.00
24858;BME280;12935;50.782;6.074;2023-08-17T03:23:55;99716.69;;;18.13;100.00
24858;BME280;12935;50.782;6.074;2023-08-17T03:26:20;99710.19;;;18.07;100.00
24858;BME280;12935;50.782;6.074;2023-08-17T03:28:45;99707.59;;;18.00;100.00
24858;BME280;12935;50.782;6.074;2023-08-17T03:31:11;99715.38;;;18.05;100.00
24858;BME280;12935;50.782;6.074;2023-08-17T03:33:36;99698.63;;;17.96;100.00
24858;BME280;12935;50.782;6.074;2023-08-17T03:36:02;99709.06;;;18.05;100.00
24858;BME280;12935;50.782;6.074;2023-08-17T03:38:27;99712.47;;;17.96;100.00
24858;BME280;12935;50.782;6.074;2023-08-17T03:40:53;99699.28;;;17.87;100.00
24858;BME280;12935;50.782;6.074;2023-08-17T03:43:18;99706.94;;;17.96;100.00
24858;BME280;12935;50.782;6.074;2023-08-17T03:45:44;99698.41;;;17.91;100.00
24858;BME280;12935;50.782;6.074;2023-08-17T03:48:09;99702.94;;;17.97;100.00
24858;BME280;12935;50.782;6.074;2023-08-17T03:50:34;99706.63;;;18.07;100.00
24858;BME280;12935;50.782;6.074;2023-08-17T03:53:00;99713.59;;;18.11;100.00
24858;BME280;12935;50.782;6.074;2023-08-17T03:55:25;99711.75;;;18.08;100.00
24858;BME280;12935;50.782;6.074;2023-08-17T03:57:51;99715.38;;;18.05;100.00
24858;BME280;12935;50.782;6.074;2023-08-17T04:00:16;99711.41;;;18.19;100.00
24858;BME280;12935;50.782;6.074;2023-08-17T04:02:42;99717.84;;;18.29;100.00
24858;BME280;12935;50.782;6.074;2023-08-17T04:05:08;99724.59;;;18.28;100.00
24858;BME280;12935;50.782;6.074;2023-08-17T04:07:33;99725.94;;;18.36;100.00
24858;BME280;12935;50.782;6.074;2023-08-17T04:09:58;99732.44;;;18.42;100.00
24858;BME280;12935;50.782;6.074;2023-08-17T04:12:24;99726.25;;;18.25;100.00
24858;BME280;12935;50.782;6.074;2023-08-17T04:14:49;99730.78;;;18.19;100.00
24858;BME280;12935;50.782;6.074;2023-08-17T04:17:14;99728.44;;;18.17;100.00
24858;BME280;12935;50.782;6.074;2023-08-17T04:19:40;99724.41;;;17.93;100.00
24858;BME280;12935;50.782;6.074;2023-08-17T04:22:05;99736.91;;;17.98;100.00
24858;BME280;12935;50.782;6.074;2023-08-17T04:24:30;99735.31;;;17.84;100.00
24858;BME280;12935;50.782;6.074;2023-08-17T04:26:55;99735.66;;;17.86;100.00
24858;BME280;12935;50.782;6.074;2023-08-17T04:29:21;99743.53;;;17.87;100.00
24858;BME280;12935;50.782;6.074;2023-08-17T04:31:46;99744.03;;;17.82;100.00
24858;BME280;12935;50.782;6.074;2023-08-17T04:34:11;99751.69;;;17.78;100.00
24858;BME280;12935;50.782;6.074;2023-08-17T04:36:37;99755.44;;;17.84;100.00
24858;BME280;12935;50.782;6.074;2023-08-17T04:39:02;99748.22;;;17.74;100.00
24858;BME280;12935;50.782;6.074;2023-08-17T04:41:29;99744.78;;;17.70;100.00
24858;BME280;12935;50.782;6.074;2023-08-17T04:43:55;99741.84;;;17.61;100.00
24858;BME280;12935;50.782;6.074;2023-08-17T04:46:20;99744.59;;;17.61;100.00
24858;BME280;12935;50.782;6.074;2023-08-17T04:48:45;99748.31;;;17.54;100.00
24858;BME280;12935;50.782;6.074;2023-08-17T04:51:10;99742.78;;;17.54;100.00
24858;BME280;12935;50.782;6.074;2023-08-17T04:53:36;99738.47;;;17.53;100.00
24858;BME280;12935;50.782;6.074;2023-08-17T04:56:02;99740.47;;;17.53;100.00
24858;BME280;12935;50.782;6.074;2023-08-17T04:58:27;99744.19;;;17.63;100.00
24858;BME280;12935;50.782;6.074;2023-08-17T05:00:53;99735.63;;;17.73;100.00
24858;BME280;12935;50.782;6.074;2023-08-17T05:03:18;99738.44;;;17.86;100.00
24858;BME280;12935;50.782;6.074;2023-08-17T05:05:43;99741.38;;;17.79;100.00
24858;BME280;12935;50.782;6.074;2023-08-17T05:08:08;99745.28;;;17.65;100.00
24858;BME280;12935;50.782;6.074;2023-08-17T05:10:34;99737.09;;;17.62;100.00
24858;BME280;12935;50.782;6.074;2023-08-17T05:12:59;99746.50;;;17.64;100.00
24858;BME280;12935;50.782;6.074;2023-08-17T05:15:25;99739.50;;;17.60;100.00
24858;BME280;12935;50.782;6.074;2023-08-17T05:17:50;99743.41;;;17.62;100.00
24858;BME280;12935;50.782;6.074;2023-08-17T05:20:15;99731.75;;;17.54;100.00
24858;BME280;12935;50.782;6.074;2023-08-17T05:22:41;99738.47;;;17.70;100.00
24858;BME280;12935;50.782;6.074;2023-08-17T05:25:06;99743.75;;;17.64;100.00
24858;BME280;12935;50.782;6.074;2023-08-17T05:27:32;99736.06;;;17.56;100.00
24858;BME280;12935;50.782;6.074;2023-08-17T05:29:57;99740.38;;;17.57;100.00
24858;BME280;12935;50.782;6.074;2023-08-17T05:32:22;99739.00;;;17.48;100.00
24858;BME280;12935;50.782;6.074;2023-08-17T05:34:48;99746.34;;;17.55;100.00
24858;BME280;12935;50.782;6.074;2023-08-17T05:37:13;99747.13;;;17.56;100.00
24858;BME280;12935;50.782;6.074;2023-08-17T05:39:40;99740.81;;;17.71;100.00
24858;BME280;12935;50.782;6.074;2023-08-17T05:42:06;99738.00;;;17.87;100.00
24858;BME280;12935;50.782;6.074;2023-08-17T05:44:31;99745.88;;;18.02;100.00
24858;BME280;12935;50.782;6.074;2023-08-17T05:46:56;99741.38;;;18.08;100.00
24858;BME280;12935;50.782;6.074;2023-08-17T05:49:22;99752.47;;;18.20;100.00
24858;BME280;12935;50.782;6.074;2023-08-17T05:51:47;99753.16;;;18.25;100.00
24858;BME280;12935;50.782;6.074;2023-08-17T05:54:12;99749.78;;;18.17;100.00
24858;BME280;12935;50.782;6.074;2023-08-17T05:56:38;99754.69;;;18.26;100.00
24858;BME280;12935;50.782;6.074;2023-08-17T05:59:09;99759.66;;;18.31;100.00
24858;BME280;12935;50.782;6.074;2023-08-17T06:01:34;99765.53;;;18.33;100.00
24858;BME280;12935;50.782;6.074;2023-08-17T06:04:01;99764.00;;;18.32;100.00
24858;BME280;12935;50.782;6.074;2023-08-17T06:06:26;99765.84;;;18.09;100.00
24858;BME280;12935;50.782;6.074;2023-08-17T06:08:51;99769.22;;;18.01;100.00
24858;BME280;12935;50.782;6.074;2023-08-17T06:11:17;99757.44;;;17.84;100.00
24858;BME280;12935;50.782;6.074;2023-08-17T06:13:42;99763.84;;;17.81;100.00
24858;BME280;12935;50.782;6.074;2023-08-17T06:16:07;99757.03;;;17.69;100.00
24858;BME280;12935;50.782;6.074;2023-08-17T06:18:33;99753.16;;;17.67;100.00
24858;BME280;12935;50.782;6.074;2023-08-17T06:20:58;99755.22;;;17.63;100.00
24858;BME280;12935;50.782;6.074;2023-08-17T06:23:24;99755.66;;;17.61;100.00
24858;BME280;12935;50.782;6.074;2023-08-17T06:25:49;99759.63;;;17.60;100.00
24858;BME280;12935;50.782;6.074;2023-08-17T06:28:14;99759.28;;;17.74;100.00
24858;BME280;12935;50.782;6.074;2023-08-17T06:30:40;99768.16;;;17.82;100.00
24858;BME280;12935;50.782;6.074;2023-08-17T06:33:05;99768.66;;;17.93;100.00
24858;BME280;12935;50.782;6.074;2023-08-17T06:35:30;99768.34;;;18.04;100.00
24858;BME280;12935;50.782;6.074;2023-08-17T06:37:56;99773.22;;;18.12;100.00
24858;BME280;12935;50.782;6.074;2023-08-17T06:40:23;99767.03;;;18.08;100.00
24858;BME280;12935;50.782;6.074;2023-08-17T06:42:48;99769.56;;;18.03;100.00
24858;BME280;12935;50.782;6.074;2023-08-17T06:45:14;99778.16;;;17.92;100.00
24858;BME280;12935;50.782;6.074;2023-08-17T06:47:43;99780.16;;;17.92;100.00
24858;BME280;12935;50.782;6.074;2023-08-17T06:50:10;99781.94;;;17.98;100.00
24858;BME280;12935;50.782;6.074;2023-08-17T06:52:35;99775.81;;;17.91;100.00
24858;BME280;12935;50.782;6.074;2023-08-17T06:55:01;99768.88;;;17.70;100.00
24858;BME280;12935;50.782;6.074;2023-08-17T06:57:26;99776.22;;;17.60;100.00
24858;BME280;12935;50.782;6.074;2023-08-17T06:59:51;99773.53;;;17.57;100.00
24858;BME280;12935;50.782;6.074;2023-08-17T07:02:17;99770.00;;;17.72;100.00
24858;BME280;12935;50.782;6.074;2023-08-17T07:04:42;99785.00;;;17.87;100.00
24858;BME280;12935;50.782;6.074;2023-08-17T07:07:08;99794.34;;;18.06;100.00
24858;BME280;12935;50.782;6.074;2023-08-17T07:09:33;99790.06;;;18.18;100.00
24858;BME280;12935;50.782;6.074;2023-08-17T07:11:59;99789.19;;;18.21;100.00
24858;BME280;12935;50.782;6.074;2023-08-17T07:14:24;99803.72;;;18.25;100.00
24858;BME280;12935;50.782;6.074;2023-08-17T07:16:50;99796.03;;;18.16;100.00
24858;BME280;12935;50.782;6.074;2023-08-17T07:19:15;99794.53;;;17.99;100.00
24858;BME280;12935;50.782;6.074;2023-08-17T07:21:40;99790.78;;;17.93;100.00
24858;BME280;12935;50.782;6.074;2023-08-17T07:24:13;99792.69;;;17.80;100.00
24858;BME280;12935;50.782;6.074;2023-08-17T07:26:38;99791.84;;;17.67;100.00
24858;BME280;12935;50.782;6.074;2023-08-17T07:29:04;99789.25;;;17.60;100.00
24858;BME280;12935;50.782;6.074;2023-08-17T07:31:29;99798.41;;;17.57;100.00
24858;BME280;12935;50.782;6.074;2023-08-17T07:33:54;99800.47;;;17.52;100.00
24858;BME280;12935;50.782;6.074;2023-08-17T07:36:20;99795.91;;;17.62;100.00
24858;BME280;12935;50.782;6.074;2023-08-17T07:38:45;99803.75;;;17.80;100.00
24858;BME280;12935;50.782;6.074;2023-08-17T07:41:10;99800.38;;;17.88;100.00
24858;BME280;12935;50.782;6.074;2023-08-17T07:43:36;99799.78;;;18.10;100.00
24858;BME280;12935;50.782;6.074;2023-08-17T07:46:01;99799.69;;;18.13;100.00
24858;BME280;12935;50.782;6.074;2023-08-17T07:48:26;99804.78;;;18.15;100.00
24858;BME280;12935;50.782;6.074;2023-08-17T07:50:52;99798.28;;;18.21;100.00
24858;BME280;12935;50.782;6.074;2023-08-17T07:53:18;99801.03;;;18.21;100.00
24858;BME280;12935;50.782;6.074;2023-08-17T07:55:44;99800.53;;;18.39;100.00
24858;BME280;12935;50.782;6.074;2023-08-17T07:58:10;99802.41;;;18.42;100.00
24858;BME280;12935;50.782;6.074;2023-08-17T08:00:35;99798.84;;;18.29;100.00
24858;BME280;12935;50.782;6.074;2023-08-17T08:03:00;99791.91;;;18.37;100.00
24858;BME280;12935;50.782;6.074;2023-08-17T08:05:26;99806.84;;;18.40;100.00
24858;BME280;12935;50.782;6.074;2023-08-17T08:07:53;99804.00;;;18.56;100.00
24858;BME280;12935;50.782;6.074;2023-08-17T08:10:18;99810.38;;;18.69;100.00
24858;BME280;12935;50.782;6.074;2023-08-17T08:12:43;99806.00;;;18.55;100.00
24858;BME280;12935;50.782;6.074;2023-08-17T08:15:09;99805.16;;;18.42;100.00
24858;BME280;12935;50.782;6.074;2023-08-17T08:17:34;99801.03;;;18.21;100.00
24858;BME280;12935;50.782;6.074;2023-08-17T08:20:00;99797.78;;;18.10;100.00
24858;BME280;12935;50.782;6.074;2023-08-17T08:22:25;99795.94;;;18.20;100.00
24858;BME280;12935;50.782;6.074;2023-08-17T08:24:51;99796.91;;;18.13;100.00
24858;BME280;12935;50.782;6.074;2023-08-17T08:27:16;99798.47;;;18.14;100.00
24858;BME280;12935;50.782;6.074;2023-08-17T08:29:41;99797.84;;;18.23;100.00
24858;BME280;12935;50.782;6.074;2023-08-17T08:32:07;99794.63;;;18.25;100.00
24858;BME280;12935;50.782;6.074;2023-08-17T08:34:32;99795.06;;;18.23;100.00
24858;BME280;12935;50.782;6.074;2023-08-17T08:36:57;99798.72;;;18.20;100.00
24858;BME280;12935;50.782;6.074;2023-08-17T08:39:25;99784.97;;;18.16;100.00
24858;BME280;12935;50.782;6.074;2023-08-17T08:41:50;99790.16;;;18.14;100.00
24858;BME280;12935;50.782;6.074;2023-08-17T08:44:16;99792.53;;;18.29;100.00
24858;BME280;12935;50.782;6.074;2023-08-17T08:46:44;99788.00;;;18.35;100.00
24858;BME280;12935;50.782;6.074;2023-08-17T08:49:10;99797.19;;;18.32;100.00
24858;BME280;12935;50.782;6.074;2023-08-17T08:51:39;99793.91;;;18.49;100.00
24858;BME280;12935;50.782;6.074;2023-08-17T08:54:08;99804.16;;;18.78;100.00
24858;BME280;12935;50.782;6.074;2023-08-17T08:56:38;99810.25;;;18.98;100.00
24858;BME280;12935;50.782;6.074;2023-08-17T08:59:05;99802.94;;;19.17;100.00
24858;BME280;12935;50.782;6.074;2023-08-17T09:01:31;99802.03;;;19.33;100.00
24858;BME280;12935;50.782;6.074;2023-08-17T09:03:58;99799.81;;;19.40;100.00
24858;BME280;12935;50.782;6.074;2023-08-17T09:06:25;99795.63;;;19.36;100.00
24858;BME280;12935;50.782;6.074;2023-08-17T09:08:52;99795.72;;;19.07;100.00
24858;BME280;12935;50.782;6.074;2023-08-17T09:11:17;99793.53;;;19.02;100.00
24858;BME280;12935;50.782;6.074;2023-08-17T09:13:42;99789.97;;;19.14;100.00
24858;BME280;12935;50.782;6.074;2023-08-17T09:16:08;99783.19;;;19.27;100.00
24858;BME280;12935;50.782;6.074;2023-08-17T09:18:34;99792.72;;;19.39;100.00
24858;BME280;12935;50.782;6.074;2023-08-17T09:21:01;99778.75;;;19.43;100.00
24858;BME280;12935;50.782;6.074;2023-08-17T09:23:26;99776.97;;;19.36;100.00
24858;BME280;12935;50.782;6.074;2023-08-17T09:25:52;99776.81;;;19.18;100.00
24858;BME280;12935;50.782;6.074;2023-08-17T09:28:19;99790.44;;;19.00;100.00
24858;BME280;12935;50.782;6.074;2023-08-17T09:30:57;99787.31;;;19.10;100.00
24858;BME280;12935;50.782;6.074;2023-08-17T09:33:27;99789.19;;;19.26;100.00
24858;BME280;12935;50.782;6.074;2023-08-17T09:35:54;99772.03;;;19.18;100.00
24858;BME280;12935;50.782;6.074;2023-08-17T09:38:20;99780.66;;;19.33;100.00
24858;BME280;12935;50.782;6.074;2023-08-17T09:40:46;99787.63;;;19.25;100.00
24858;BME280;12935;50.782;6.074;2023-08-17T09:43:12;99783.28;;;19.37;100.00
24858;BME280;12935;50.782;6.074;2023-08-17T09:45:38;99768.56;;;19.27;100.00
24858;BME280;12935;50.782;6.074;2023-08-17T09:48:05;99779.25;;;19.16;100.00
24858;BME280;12935;50.782;6.074;2023-08-17T09:50:30;99777.44;;;19.22;100.00
24858;BME280;12935;50.782;6.074;2023-08-17T09:52:57;99779.97;;;19.42;100.00
24858;BME280;12935;50.782;6.074;2023-08-17T09:55:22;99782.28;;;19.43;100.00
24858;BME280;12935;50.782;6.074;2023-08-17T09:57:49;99767.97;;;19.57;100.00
24858;BME280;12935;50.782;6.074;2023-08-17T10:00:15;99773.41;;;19.61;100.00
24858;BME280;12935;50.782;6.074;2023-08-17T10:02:43;99768.59;;;19.74;100.00
24858;BME280;12935;50.782;6.074;2023-08-17T10:05:11;99768.53;;;19.87;100.00
24858;BME280;12935;50.782;6.074;2023-08-17T10:07:38;99772.13;;;19.75;100.00
24858;BME280;12935;50.782;6.074;2023-08-17T10:10:06;99768.75;;;19.92;100.00
24858;BME280;12935;50.782;6.074;2023-08-17T10:12:37;99770.34;;;19.81;100.00
24858;BME280;12935;50.782;6.074;2023-08-17T10:15:10;99775.25;;;19.99;100.00
24858;BME280;12935;50.782;6.074;2023-08-17T10:17:56;99769.38;;;20.18;100.00
24858;BME280;12935;50.782;6.074;2023-08-17T10:20:26;99774.09;;;20.09;100.00
24858;BME280;12935;50.782;6.074;2023-08-17T10:23:17;99767.97;;;20.14;100.00
24858;BME280;12935;50.782;6.074;2023-08-17T10:25:44;99758.34;;;20.27;100.00
24858;BME280;12935;50.782;6.074;2023-08-17T10:28:10;99760.47;;;20.23;100.00
24858;BME280;12935;50.782;6.074;2023-08-17T10:30:36;99758.22;;;20.09;100.00
24858;BME280;12935;50.782;6.074;2023-08-17T10:33:04;99772.94;;;19.97;100.00
24858;BME280;12935;50.782;6.074;2023-08-17T10:35:31;99770.41;;;20.12;100.00
24858;BME280;12935;50.782;6.074;2023-08-17T10:37:57;99773.56;;;20.01;100.00
24858;BME280;12935;50.782;6.074;2023-08-17T10:40:34;99779.19;;;20.10;100.00
24858;BME280;12935;50.782;6.074;2023-08-17T10:43:00;99778.03;;;20.20;100.00
24858;BME280;12935;50.782;6.074;2023-08-17T10:45:33;99779.94;;;20.32;100.00
24858;BME280;12935;50.782;6.074;2023-08-17T10:50:32;99780.19;;;20.38;100.00
24858;BME280;12935;50.782;6.074;2023-08-17T10:53:03;99778.22;;;20.48;100.00
24858;BME280;12935;50.782;6.074;2023-08-17T10:55:41;99773.19;;;20.55;100.00
24858;BME280;12935;50.782;6.074;2023-08-17T10:58:09;99775.22;;;20.64;100.00
24858;BME280;12935;50.782;6.074;2023-08-17T11:00:36;99776.53;;;20.81;100.00
24858;BME280;12935;50.782;6.074;2023-08-17T11:03:28;99784.91;;;20.90;100.00
24858;BME280;12935;50.782;6.074;2023-08-17T11:05:55;99786.16;;;20.98;100.00
24858;BME280;12935;50.782;6.074;2023-08-17T11:11:05;99787.28;;;21.10;100.00
24858;BME280;12935;50.782;6.074;2023-08-17T11:13:32;99791.78;;;21.17;100.00
24858;BME280;12935;50.782;6.074;2023-08-17T11:15:58;99790.19;;;20.97;100.00
24858;BME280;12935;50.782;6.074;2023-08-17T11:18:24;99794.25;;;20.75;100.00
24858;BME280;12935;50.782;6.074;2023-08-17T11:20:50;99794.16;;;20.56;100.00
24858;BME280;12935;50.782;6.074;2023-08-17T11:23:16;99792.53;;;20.46;100.00
24858;BME280;12935;50.782;6.074;2023-08-17T11:25:42;99790.97;;;20.67;100.00
24858;BME280;12935;50.782;6.074;2023-08-17T11:28:08;99792.16;;;20.57;100.00
24858;BME280;12935;50.782;6.074;2023-08-17T11:30:34;99794.06;;;20.38;100.00
24858;BME280;12935;50.782;6.074;2023-08-17T11:33:02;99804.16;;;20.32;100.00
24858;BME280;12935;50.782;6.074;2023-08-17T11:35:27;99811.56;;;20.35;100.00
24858;BME280;12935;50.782;6.074;2023-08-17T11:37:53;99811.69;;;20.44;100.00
24858;BME280;12935;50.782;6.074;2023-08-17T11:40:18;99801.47;;;20.41;100.00
24858;BME280;12935;50.782;6.074;2023-08-17T11:42:44;99805.16;;;20.38;100.00
24858;BME280;12935;50.782;6.074;2023-08-17T11:45:10;99787.00;;;20.24;100.00
24858;BME280;12935;50.782;6.074;2023-08-17T11:47:38;99793.44;;;20.21;100.00
24858;BME280;12935;50.782;6.074;2023-08-17T11:50:04;99799.97;;;20.27;100.00
24858;BME280;12935;50.782;6.074;2023-08-17T11:52:30;99794.81;;;20.39;100.00
24858;BME280;12935;50.782;6.074;2023-08-17T11:55:00;99792.31;;;20.62;100.00
24858;BME280;12935;50.782;6.074;2023-08-17T11:57:26;99792.75;;;20.83;100.00
24858;BME280;12935;50.782;6.074;2023-08-17T11:59:56;99794.19;;;20.65;100.00
24858;BME280;12935;50.782;6.074;2023-08-17T12:02:26;99793.66;;;20.80;100.00
24858;BME280;12935;50.782;6.074;2023-08-17T12:04:52;99784.09;;;20.81;100.00
24858;BME280;12935;50.782;6.074;2023-08-17T12:07:18;99779.41;;;20.69;100.00
24858;BME280;12935;50.782;6.074;2023-08-17T12:09:44;99785.94;;;20.75;100.00
24858;BME280;12935;50.782;6.074;2023-08-17T12:12:11;99779.75;;;20.49;100.00
24858;BME280;12935;50.782;6.074;2023-08-17T12:14:36;99777.97;;;20.55;100.00
24858;BME280;12935;50.782;6.074;2023-08-17T12:17:02;99773.59;;;20.76;100.00
24858;BME280;12935;50.782;6.074;2023-08-17T12:19:27;99777.69;;;20.93;100.00
24858;BME280;12935;50.782;6.074;2023-08-17T12:21:54;99769.94;;;20.97;100.00
24858;BME280;12935;50.782;6.074;2023-08-17T12:24:19;99776.53;;;20.81;100.00
24858;BME280;12935;50.782;6.074;2023-08-17T12:26:45;99777.16;;;20.76;100.00
24858;BME280;12935;50.782;6.074;2023-08-17T12:29:11;99777.59;;;20.75;100.00
24858;BME280;12935;50.782;6.074;2023-08-17T12:31:36;99777.69;;;20.93;100.00
24858;BME280;12935;50.782;6.074;2023-08-17T12:34:02;99774.56;;;20.91;100.00
24858;BME280;12935;50.782;6.074;2023-08-17T12:36:28;99771.28;;;20.74;100.00
24858;BME280;12935;50.782;6.074;2023-08-17T12:38:54;99775.50;;;20.97;100.00
24858;BME280;12935;50.782;6.074;2023-08-17T12:41:20;99777.31;;;20.82;100.00
24858;BME280;12935;50.782;6.074;2023-08-17T12:43:45;99763.78;;;20.62;100.00
24858;BME280;12935;50.782;6.074;2023-08-17T12:46:11;99779.16;;;20.76;100.00
24858;BME280;12935;50.782;6.074;2023-08-17T12:48:36;99774.50;;;20.73;100.00
24858;BME280;12935;50.782;6.074;2023-08-17T12:51:02;99772.53;;;20.82;100.00